createdAt,value
2019-05-12T00:00:48.530Z,12.06
2019-05-12T00:03:19.719Z,12.07
2019-05-12T00:05:51.276Z,11.96
2019-05-12T00:08:22.256Z,11.91
2019-05-12T00:10:54.642Z,11.86
2019-05-12T00:13:27.929Z,11.88
2019-05-12T00:15:59.533Z,11.76
2019-05-12T00:18:30.412Z,11.75
2019-05-12T00:21:01.820Z,11.74
2019-05-12T00:23:34.617Z,11.57
2019-05-12T00:26:07.913Z,11.63
2019-05-12T00:28:39.347Z,11.56
2019-05-12T00:31:10.857Z,11.57
2019-05-12T00:33:42.278Z,11.49
2019-05-12T00:36:13.749Z,11.39
2019-05-12T00:38:45.291Z,11.41
2019-05-12T00:41:18.132Z,11.32
2019-05-12T00:43:49.794Z,11.24
2019-05-12T00:46:21.235Z,11.21
2019-05-12T00:48:52.796Z,11.20
2019-05-12T00:51:24.080Z,11.28
2019-05-12T00:53:55.285Z,11.25
2019-05-12T00:56:28.480Z,11.25
2019-05-12T00:59:00.306Z,11.11
2019-05-12T01:01:31.730Z,11.08
2019-05-12T01:04:03.029Z,11.06
2019-05-12T01:06:34.411Z,11.15
2019-05-12T01:09:08.848Z,11.08
2019-05-12T01:11:40.348Z,11.06
2019-05-12T01:14:11.788Z,11.02
2019-05-12T01:16:42.994Z,11.09
2019-05-12T01:19:14.375Z,11.00
2019-05-12T01:21:48.003Z,11.00
2019-05-12T01:24:19.178Z,11.02
2019-05-12T01:26:50.973Z,10.89
2019-05-12T01:29:22.497Z,10.95
2019-05-12T01:32:18.185Z,10.93
2019-05-12T01:34:49.279Z,10.93
2019-05-12T01:37:24.055Z,10.87
2019-05-12T01:39:59.690Z,10.95
2019-05-12T01:42:29.539Z,10.95
2019-05-12T01:45:01.036Z,10.94
2019-05-12T01:47:32.836Z,10.87
2019-05-12T01:50:04.512Z,10.82
2019-05-12T01:52:38.391Z,10.85
2019-05-12T01:55:09.222Z,10.82
2019-05-12T01:57:40.488Z,10.82
2019-05-12T02:00:12.934Z,10.84
2019-05-12T02:02:44.229Z,10.79
2019-05-12T02:05:15.573Z,10.76
2019-05-12T02:07:52.162Z,10.79
2019-05-12T02:10:24.225Z,10.68
2019-05-12T02:12:55.658Z,10.62
2019-05-12T02:15:27.861Z,10.66
2019-05-12T02:17:59.542Z,10.58
2019-05-12T02:20:30.838Z,10.58
2019-05-12T02:23:02.095Z,10.52
2019-05-12T02:25:33.470Z,10.50
2019-05-12T02:28:04.964Z,10.49
2019-05-12T02:30:40.742Z,10.50
2019-05-12T02:33:09.773Z,10.60
2019-05-12T02:35:44.250Z,10.60
2019-05-12T02:38:14.682Z,10.51
2019-05-12T02:40:46.273Z,10.43
2019-05-12T02:43:17.847Z,10.47
2019-05-12T02:45:49.092Z,10.38
2019-05-12T02:48:20.231Z,10.39
2019-05-12T02:50:54.405Z,10.34
2019-05-12T02:53:25.170Z,10.29
2019-05-12T02:55:57.809Z,10.24
2019-05-12T02:58:30.803Z,10.22
2019-05-12T03:01:05.422Z,10.20
2019-05-12T03:03:37.746Z,9.95
2019-05-12T03:06:09.689Z,9.95
2019-05-12T03:08:44.700Z,10.07
2019-05-12T03:11:15.274Z,10.01
2019-05-12T03:13:46.737Z,10.05
2019-05-12T03:16:18.199Z,10.00
2019-05-12T03:18:49.763Z,9.99
2019-05-12T03:21:24.305Z,10.02
2019-05-12T03:23:55.273Z,10.08
2019-05-12T03:26:26.947Z,10.11
2019-05-12T03:28:58.401Z,10.10
2019-05-12T03:31:31.955Z,10.14
2019-05-12T03:34:09.642Z,10.21
2019-05-12T03:36:42.312Z,10.24
2019-05-12T03:39:09.702Z,10.25
2019-05-12T03:41:44.339Z,10.22
2019-05-12T03:44:15.286Z,10.25
2019-05-12T03:46:46.924Z,10.28
2019-05-12T03:49:19.580Z,10.29
2019-05-12T03:51:54.208Z,10.34
2019-05-12T03:54:24.569Z,10.32
2019-05-12T03:56:56.078Z,10.36
2019-05-12T03:59:27.520Z,10.36
2019-05-12T04:01:58.855Z,10.35
2019-05-12T04:04:30.006Z,10.46
2019-05-12T04:07:01.208Z,10.58
2019-05-12T04:09:34.879Z,10.67
2019-05-12T04:12:05.614Z,10.72
2019-05-12T04:14:37.114Z,10.72
2019-05-12T04:17:08.482Z,10.87
2019-05-12T04:19:39.938Z,10.96
2019-05-12T04:22:11.425Z,11.08
2019-05-12T04:24:44.569Z,11.14
2019-05-12T04:27:15.621Z,11.27
2019-05-12T04:29:46.934Z,11.53
2019-05-12T04:32:18.018Z,11.53
2019-05-12T04:34:49.166Z,11.54
2019-05-12T04:37:20.577Z,11.63
2019-05-12T04:39:49.777Z,11.80
2019-05-12T04:42:21.036Z,11.85
2019-05-12T04:44:55.189Z,12.00
2019-05-12T04:47:25.468Z,12.10
2019-05-12T04:49:56.338Z,12.32
2019-05-12T04:52:27.500Z,12.51
2019-05-12T04:54:58.482Z,12.75
2019-05-12T04:57:29.397Z,12.87
2019-05-12T05:00:00.391Z,13.11
2019-05-12T05:02:35.103Z,13.24
2019-05-12T05:05:05.409Z,13.07
2019-05-12T05:07:36.645Z,13.06
2019-05-12T05:10:07.733Z,13.14
2019-05-12T05:12:38.553Z,13.36
2019-05-12T05:15:09.760Z,13.32
2019-05-12T05:17:43.946Z,13.82
2019-05-12T05:20:13.806Z,14.18
2019-05-12T05:22:44.648Z,14.30
2019-05-12T05:25:15.591Z,14.76
2019-05-12T05:27:46.635Z,15.39
2019-05-12T05:30:18.155Z,15.64
2019-05-12T05:32:48.988Z,15.25
2019-05-12T05:35:19.806Z,16.11
2019-05-12T05:37:53.894Z,16.11
2019-05-12T05:40:30.052Z,16.71
2019-05-12T05:42:57.429Z,16.71
2019-05-12T05:45:28.525Z,17.25
2019-05-12T05:48:04.106Z,18.17
2019-05-12T05:50:34.286Z,18.66
2019-05-12T05:53:09.306Z,18.13
2019-05-12T05:55:37.732Z,17.45
2019-05-12T05:58:10.591Z,17.72
2019-05-12T06:00:43.490Z,17.67
2019-05-12T06:03:23.251Z,18.07
2019-05-12T06:05:47.362Z,18.71
2019-05-12T06:08:20.713Z,19.34
2019-05-12T06:10:50.806Z,20.24
2019-05-12T06:13:27.337Z,19.84
2019-05-12T06:15:55.261Z,20.66
2019-05-12T06:18:28.866Z,21.43
2019-05-12T06:20:58.984Z,21.43
2019-05-12T06:23:34.923Z,22.07
2019-05-12T06:26:04.328Z,22.77
2019-05-12T06:28:39.351Z,22.95
2019-05-12T06:31:08.061Z,22.26
2019-05-12T06:33:39.235Z,22.62
2019-05-12T06:36:13.714Z,21.49
2019-05-12T06:38:43.454Z,21.05
2019-05-12T06:41:20.617Z,20.96
2019-05-12T06:43:47.236Z,19.97
2019-05-12T06:46:21.198Z,20.08
2019-05-12T06:48:50.678Z,19.50
2019-05-12T06:51:23.689Z,19.01
2019-05-12T06:53:54.525Z,19.31
2019-05-12T06:56:25.732Z,19.74
2019-05-12T06:59:00.985Z,20.03
2019-05-12T07:01:29.374Z,20.18
2019-05-12T07:04:05.572Z,20.33
2019-05-12T07:06:33.998Z,19.91
2019-05-12T07:09:09.955Z,20.61
2019-05-12T07:11:45.124Z,20.92
2019-05-12T07:14:18.927Z,20.99
2019-05-12T07:16:46.854Z,21.32
2019-05-12T07:19:22.695Z,21.00
2019-05-12T07:21:55.404Z,20.89
2019-05-12T07:24:24.182Z,21.15
2019-05-12T07:27:04.119Z,21.37
2019-05-12T07:29:28.047Z,21.84
2019-05-12T07:31:59.101Z,21.88
2019-05-12T07:34:30.381Z,22.43
2019-05-12T07:37:04.266Z,22.29
2019-05-12T07:39:47.246Z,22.84
2019-05-12T07:42:10.628Z,23.00
2019-05-12T07:44:44.156Z,23.20
2019-05-12T07:47:19.251Z,23.54
2019-05-12T07:49:47.888Z,22.84
2019-05-12T07:52:20.025Z,22.36
2019-05-12T07:54:53.772Z,23.02
2019-05-12T07:57:24.221Z,22.98
2019-05-12T07:59:55.254Z,23.34
2019-05-12T08:02:31.568Z,23.04
2019-05-12T08:04:59.715Z,23.65
2019-05-12T08:07:30.761Z,23.85
2019-05-12T08:10:07.186Z,23.59
2019-05-12T08:12:34.356Z,23.41
2019-05-12T08:15:09.592Z,23.26
2019-05-12T08:17:38.883Z,23.10
2019-05-12T08:20:10.017Z,23.04
2019-05-12T08:22:41.076Z,23.11
2019-05-12T08:25:13.455Z,22.85
2019-05-12T08:27:49.445Z,23.36
2019-05-12T08:30:18.728Z,23.17
2019-05-12T08:32:54.708Z,23.34
2019-05-12T08:35:29.408Z,23.29
2019-05-12T08:37:54.971Z,23.69
2019-05-12T08:40:25.925Z,23.77
2019-05-12T08:42:59.329Z,23.97
2019-05-12T08:45:33.976Z,24.31
2019-05-12T08:48:03.877Z,24.47
2019-05-12T08:50:36.142Z,24.70
2019-05-12T08:53:14.063Z,24.88
2019-05-12T08:55:40.056Z,24.26
2019-05-12T08:58:11.073Z,24.40
2019-05-12T09:00:50.056Z,24.36
2019-05-12T09:03:15.244Z,24.88
2019-05-12T09:05:48.579Z,24.88
2019-05-12T09:08:20.083Z,25.18
2019-05-12T09:10:53.134Z,25.19
2019-05-12T09:13:24.047Z,25.40
2019-05-12T09:15:55.103Z,25.48
2019-05-12T09:18:33.653Z,25.28
2019-05-12T09:20:59.044Z,25.54
2019-05-12T09:23:32.685Z,25.35
2019-05-12T09:26:04.132Z,24.91
2019-05-12T09:28:46.511Z,24.95
2019-05-12T09:31:08.220Z,24.70
2019-05-12T09:33:39.450Z,24.67
2019-05-12T09:36:11.320Z,24.60
2019-05-12T09:38:44.010Z,24.75
2019-05-12T09:41:15.185Z,24.52
2019-05-12T09:43:50.441Z,24.15
2019-05-12T09:46:19.690Z,24.25
2019-05-12T09:48:52.839Z,24.25
2019-05-12T09:51:23.824Z,24.79
2019-05-12T09:53:55.623Z,24.54
2019-05-12T09:56:26.761Z,24.24
2019-05-12T09:59:01.726Z,24.90
2019-05-12T10:01:37.383Z,25.40
2019-05-12T10:04:03.645Z,25.53
2019-05-12T10:06:36.029Z,25.81
2019-05-12T10:09:08.775Z,25.71
2019-05-12T10:11:40.649Z,25.74
2019-05-12T10:14:13.836Z,26.10
2019-05-12T10:16:49.612Z,25.75
2019-05-12T10:19:17.673Z,26.08
2019-05-12T10:21:49.078Z,25.66
2019-05-12T10:24:21.409Z,26.36
2019-05-12T10:26:54.119Z,26.97
2019-05-12T10:29:30.613Z,26.12
2019-05-12T10:31:58.143Z,26.11
2019-05-12T10:34:34.223Z,26.41
2019-05-12T10:37:03.775Z,26.41
2019-05-12T10:39:34.815Z,26.36
2019-05-12T10:42:05.940Z,26.56
2019-05-12T10:44:40.888Z,26.28
2019-05-12T10:47:13.521Z,25.96
2019-05-12T10:49:44.755Z,25.63
2019-05-12T10:52:15.971Z,25.32
2019-05-12T10:54:47.253Z,25.18
2019-05-12T10:57:18.180Z,25.08
2019-05-12T10:59:49.234Z,25.26
2019-05-12T11:02:25.726Z,25.26
2019-05-12T11:04:54.117Z,24.91
2019-05-12T11:07:28.119Z,24.17
2019-05-12T11:10:05.090Z,24.30
2019-05-12T11:12:30.433Z,23.96
2019-05-12T11:15:06.348Z,23.81
2019-05-12T11:18:04.871Z,23.56
2019-05-12T11:20:35.960Z,23.33
2019-05-12T11:23:07.015Z,23.13
2019-05-12T11:25:38.185Z,23.01
2019-05-12T11:28:09.352Z,23.00
2019-05-12T11:30:43.527Z,22.81
2019-05-12T11:33:14.619Z,22.58
2019-05-12T11:35:45.785Z,22.76
2019-05-12T11:38:16.651Z,23.00
2019-05-12T11:40:47.816Z,23.26
2019-05-12T11:43:18.680Z,23.53
2019-05-12T11:45:49.900Z,23.74
2019-05-12T11:48:23.360Z,23.99
2019-05-12T11:50:54.595Z,23.85
2019-05-12T11:53:30.986Z,23.75
2019-05-12T11:56:02.233Z,23.61
2019-05-12T11:58:33.438Z,23.58
2019-05-12T12:01:08.277Z,23.69
2019-05-12T12:03:38.995Z,23.99
2019-05-12T12:06:09.979Z,24.13
2019-05-12T12:08:40.983Z,23.99
2019-05-12T12:11:18.568Z,23.81
2019-05-12T12:13:44.617Z,23.64
2019-05-12T12:16:15.402Z,23.48
2019-05-12T12:18:49.388Z,23.17
2019-05-12T12:21:19.174Z,22.87
2019-05-12T12:23:50.352Z,22.86
2019-05-12T12:26:30.446Z,22.87
2019-05-12T12:28:59.705Z,22.80
2019-05-12T12:31:47.708Z,22.82
2019-05-12T12:34:25.555Z,22.88
2019-05-12T12:36:54.453Z,23.08
2019-05-12T12:39:24.899Z,23.12
2019-05-12T12:42:00.377Z,23.28
2019-05-12T12:44:28.957Z,23.19
2019-05-12T12:47:01.840Z,23.11
2019-05-12T12:49:33.934Z,22.97
2019-05-12T12:52:05.225Z,23.03
2019-05-12T12:54:36.274Z,22.97
2019-05-12T12:57:09.902Z,23.02
2019-05-12T12:59:44.156Z,23.10
2019-05-12T13:02:14.213Z,23.06
2019-05-12T13:04:50.207Z,23.11
2019-05-12T13:07:18.163Z,23.05
2019-05-12T13:09:54.936Z,23.00
2019-05-12T13:12:22.179Z,23.04
2019-05-12T13:14:53.323Z,23.00
2019-05-12T13:17:27.346Z,22.89
2019-05-12T13:19:58.848Z,22.86
2019-05-12T13:22:30.177Z,22.85
2019-05-12T13:25:04.560Z,22.82
2019-05-12T13:27:36.935Z,22.69
2019-05-12T13:30:18.837Z,22.69
2019-05-12T13:32:40.699Z,22.55
2019-05-12T13:35:16.345Z,22.60
2019-05-12T13:37:44.476Z,22.65
2019-05-12T13:40:15.724Z,22.69
2019-05-12T13:42:46.807Z,22.54
2019-05-12T13:45:19.091Z,22.55
2019-05-12T13:47:50.023Z,22.57
2019-05-12T13:50:26.066Z,22.54
2019-05-12T13:52:54.530Z,22.61
2019-05-12T13:55:25.451Z,22.76
2019-05-12T13:57:57.749Z,22.79
2019-05-12T14:00:29.194Z,22.85
2019-05-12T14:03:07.142Z,22.81
2019-05-12T14:05:33.297Z,22.68
2019-05-12T14:08:04.267Z,22.70
2019-05-12T14:10:37.601Z,22.68
2019-05-12T14:13:09.181Z,22.64
2019-05-12T14:15:40.077Z,22.40
2019-05-12T14:18:18.457Z,22.45
2019-05-12T14:20:45.399Z,22.38
2019-05-12T14:23:16.623Z,22.36
2019-05-12T14:25:47.485Z,22.26
2019-05-12T14:28:18.435Z,22.27
2019-05-12T14:30:51.617Z,22.21
2019-05-12T14:33:24.335Z,22.09
2019-05-12T14:35:54.978Z,22.12
2019-05-12T14:38:29.526Z,22.08
2019-05-12T14:41:01.239Z,22.05
2019-05-12T14:43:33.975Z,22.00
2019-05-12T14:46:08.479Z,21.99
2019-05-12T14:48:40.146Z,21.97
2019-05-12T14:51:10.587Z,21.96
2019-05-12T14:53:41.557Z,21.88
2019-05-12T14:56:14.015Z,21.78
2019-05-12T14:58:50.159Z,21.78
2019-05-12T15:01:18.537Z,21.88
2019-05-12T15:03:49.687Z,21.76
2019-05-12T15:06:25.731Z,21.70
2019-05-12T15:08:54.129Z,21.62
2019-05-12T15:11:25.449Z,21.64
2019-05-12T15:13:56.456Z,21.64
2019-05-12T15:16:31.825Z,21.58
2019-05-12T15:19:00.374Z,21.58
2019-05-12T15:21:33.500Z,21.48
2019-05-12T15:24:09.223Z,21.48
2019-05-12T15:26:37.208Z,21.44
2019-05-12T15:29:13.407Z,21.38
2019-05-12T15:31:52.709Z,21.39
2019-05-12T15:34:14.366Z,21.41
2019-05-12T15:36:51.877Z,21.46
2019-05-12T15:39:18.670Z,21.42
2019-05-12T15:41:51.055Z,21.41
2019-05-12T15:44:31.168Z,21.38
2019-05-12T15:46:55.610Z,21.41
2019-05-12T15:49:27.505Z,21.31
2019-05-12T15:51:58.751Z,21.40
2019-05-12T15:54:31.097Z,21.33
2019-05-12T15:57:04.163Z,21.33
2019-05-12T15:59:35.080Z,21.31
2019-05-12T16:02:13.352Z,21.23
2019-05-12T16:04:42.932Z,21.29
2019-05-12T16:07:14.245Z,21.18
2019-05-12T16:09:45.777Z,21.23
2019-05-12T16:12:23.367Z,21.25
2019-05-12T16:14:50.585Z,21.25
2019-05-12T16:17:25.443Z,21.25
2019-05-12T16:19:54.480Z,21.18
2019-05-12T16:22:30.701Z,21.29
2019-05-12T16:24:58.960Z,21.30
2019-05-12T16:27:33.711Z,21.22
2019-05-12T16:30:04.566Z,21.21
2019-05-12T16:32:42.684Z,21.11
2019-05-12T16:35:07.724Z,21.07
2019-05-12T16:37:39.958Z,21.01
2019-05-12T16:40:13.443Z,20.94
2019-05-12T16:42:52.515Z,20.87
2019-05-12T16:45:19.844Z,20.89
2019-05-12T16:47:50.113Z,20.88
2019-05-12T16:50:27.385Z,20.87
2019-05-12T16:52:54.746Z,20.85
2019-05-12T16:55:25.850Z,20.88
2019-05-12T16:57:57.167Z,20.82
2019-05-12T17:00:30.994Z,20.86
2019-05-12T17:03:03.772Z,20.81
2019-05-12T17:05:35.052Z,20.84
2019-05-12T17:08:06.026Z,20.77
2019-05-12T17:10:36.926Z,20.72
2019-05-12T17:13:13.841Z,20.75
2019-05-12T17:15:40.409Z,20.74
2019-05-12T17:18:13.589Z,20.70
2019-05-12T17:20:46.991Z,20.71
2019-05-12T17:23:16.868Z,20.73
2019-05-12T17:25:48.120Z,20.69
2019-05-12T17:28:19.713Z,20.77
2019-05-12T17:30:50.560Z,20.61
2019-05-12T17:33:22.772Z,20.69
2019-05-12T17:35:54.404Z,20.66
2019-05-12T17:38:25.653Z,20.69
2019-05-12T17:41:00.691Z,20.68
2019-05-12T17:43:29.811Z,20.66
2019-05-12T17:46:04.076Z,20.60
2019-05-12T17:48:37.269Z,20.64
2019-05-12T17:51:07.329Z,20.63
2019-05-12T17:53:38.515Z,20.59
2019-05-12T17:56:10.009Z,20.60
2019-05-12T17:58:45.232Z,20.52
2019-05-12T18:01:14.464Z,20.46
2019-05-12T18:03:50.428Z,20.22
2019-05-12T18:06:20.456Z,20.00
2019-05-12T18:08:53.422Z,20.02
2019-05-12T18:11:25.078Z,19.98
2019-05-12T18:14:02.538Z,20.08
2019-05-12T18:16:29.518Z,20.09
2019-05-12T18:19:03.194Z,20.09
2019-05-12T18:21:34.124Z,20.14
2019-05-12T18:24:11.038Z,20.12
2019-05-12T18:26:39.439Z,20.10
2019-05-12T18:29:10.616Z,20.15
2019-05-12T18:31:43.687Z,20.15
2019-05-12T18:34:14.822Z,20.09
2019-05-12T18:36:49.137Z,20.07
2019-05-12T18:39:18.951Z,20.04
2019-05-12T18:41:50.162Z,20.01
2019-05-12T18:44:28.898Z,20.05
2019-05-12T18:46:54.274Z,19.97
2019-05-12T18:49:25.061Z,19.99
2019-05-12T18:51:57.220Z,19.96
2019-05-12T18:54:28.227Z,19.85
2019-05-12T18:57:04.870Z,19.86
2019-05-12T18:59:33.961Z,19.83
2019-05-12T19:02:05.261Z,19.84
2019-05-12T19:04:39.601Z,19.79
2019-05-12T19:07:09.721Z,19.78
2019-05-12T19:09:44.761Z,19.85
2019-05-12T19:12:17.914Z,19.81
2019-05-12T19:14:46.394Z,19.79
2019-05-12T19:17:17.930Z,19.78
2019-05-12T19:19:53.975Z,19.72
2019-05-12T19:22:21.566Z,19.67
2019-05-12T19:24:56.668Z,19.62
2019-05-12T19:27:25.091Z,19.46
2019-05-12T19:29:56.107Z,19.40
2019-05-12T19:32:28.330Z,19.40
2019-05-12T19:35:00.928Z,19.37
2019-05-12T19:37:33.655Z,19.39
2019-05-12T19:40:11.861Z,19.36
2019-05-12T19:42:38.028Z,19.26
2019-05-12T19:45:16.075Z,19.21
2019-05-12T19:47:44.321Z,19.22
2019-05-12T19:50:18.510Z,19.25
2019-05-12T19:52:47.661Z,19.23
2019-05-12T19:55:20.252Z,19.25
2019-05-12T19:57:51.445Z,19.21
2019-05-12T20:00:22.949Z,19.24
2019-05-12T20:02:53.942Z,19.19
2019-05-12T20:05:24.847Z,19.27
2019-05-12T20:07:55.945Z,19.29
2019-05-12T20:10:26.812Z,19.20
2019-05-12T20:12:57.923Z,19.20
2019-05-12T20:15:30.305Z,19.30
2019-05-12T20:18:04.091Z,19.38
2019-05-12T20:20:37.841Z,19.33
2019-05-12T20:23:06.787Z,19.30
2019-05-12T20:25:37.767Z,19.31
2019-05-12T20:28:11.243Z,19.23
2019-05-12T20:30:43.666Z,19.29
2019-05-12T20:33:13.967Z,19.28
2019-05-12T20:35:49.071Z,19.34
2019-05-12T20:38:17.598Z,19.35
2019-05-12T20:40:48.577Z,19.31
2019-05-12T20:43:24.050Z,19.26
2019-05-12T20:45:52.725Z,19.29
2019-05-12T20:48:26.525Z,19.25
2019-05-12T20:50:56.212Z,19.18
2019-05-12T20:53:31.730Z,19.00
2019-05-12T20:55:59.864Z,18.99
2019-05-12T20:58:38.538Z,19.01
2019-05-12T21:01:05.211Z,18.99
2019-05-12T21:03:39.757Z,18.86
2019-05-12T21:06:09.493Z,18.81
2019-05-12T21:08:44.910Z,18.84
2019-05-12T21:11:13.534Z,18.85
2019-05-12T21:13:44.588Z,18.78
2019-05-12T21:16:19.561Z,18.82
2019-05-12T21:18:55.905Z,18.76
2019-05-12T21:21:25.232Z,18.76
2019-05-12T21:23:58.721Z,18.79
2019-05-12T21:26:28.353Z,18.84
2019-05-12T21:28:59.350Z,18.81
2019-05-12T21:31:31.122Z,18.75
2019-05-12T21:34:04.512Z,18.72
2019-05-12T21:36:35.036Z,18.66
2019-05-12T21:39:10.514Z,18.73
2019-05-12T21:41:50.506Z,18.71
2019-05-12T21:44:14.291Z,18.61
2019-05-12T21:46:57.101Z,18.60
2019-05-12T21:49:18.049Z,18.65
2019-05-12T21:51:50.421Z,18.55
2019-05-12T21:54:24.164Z,18.61
2019-05-12T21:56:55.030Z,18.58
2019-05-12T21:59:29.003Z,18.53
2019-05-12T22:01:59.353Z,18.43
2019-05-12T22:04:32.888Z,18.48
2019-05-12T22:07:03.933Z,18.41
2019-05-12T22:09:41.774Z,18.37
2019-05-12T22:12:09.468Z,18.41
2019-05-12T22:14:41.027Z,18.27
2019-05-12T22:17:13.723Z,18.26
2019-05-12T22:19:44.955Z,18.12
2019-05-12T22:22:19.556Z,18.04
2019-05-12T22:24:49.237Z,17.89
2019-05-12T22:27:25.796Z,17.89
2019-05-12T22:29:53.510Z,17.89
2019-05-12T22:32:29.514Z,17.76
2019-05-12T22:34:59.723Z,17.64
2019-05-12T22:37:34.988Z,17.57
2019-05-12T22:40:06.177Z,17.30
2019-05-12T22:42:36.198Z,17.26
2019-05-12T22:45:07.293Z,17.35
2019-05-12T22:47:38.292Z,17.31
2019-05-12T22:50:10.196Z,17.22
2019-05-12T22:52:47.273Z,17.18
2019-05-12T22:55:14.561Z,17.08
2019-05-12T22:57:45.457Z,17.10
2019-05-12T23:00:19.335Z,16.90
2019-05-12T23:02:50.048Z,16.82
2019-05-12T23:05:21.547Z,16.75
2019-05-12T23:07:54.407Z,16.67
2019-05-12T23:10:26.300Z,16.59
2019-05-12T23:13:01.763Z,16.62
2019-05-12T23:15:30.469Z,16.69
2019-05-12T23:18:04.027Z,16.54
2019-05-12T23:20:35.735Z,16.50
2019-05-12T23:23:09.112Z,16.42
2019-05-12T23:25:39.621Z,16.40
2019-05-12T23:28:10.894Z,16.40
2019-05-12T23:30:48.391Z,16.50
2019-05-12T23:33:15.996Z,16.50
2019-05-12T23:35:47.184Z,16.50
2019-05-12T23:38:20.904Z,16.44
2019-05-12T23:40:51.006Z,16.49
2019-05-12T23:43:23.782Z,16.36
2019-05-12T23:45:56.594Z,16.29
2019-05-12T23:48:27.859Z,16.27
2019-05-12T23:50:58.970Z,16.22
2019-05-12T23:53:30.109Z,16.12
2019-05-12T23:56:03.719Z,16.11
2019-05-12T23:58:34.292Z,16.07
